createdAt,value
2022-08-05T00:01:36.549Z,53.67
2022-08-05T00:04:19.402Z,53.62
2022-08-05T00:06:51.823Z,53.57
2022-08-05T00:09:20.410Z,53.57
2022-08-05T00:11:55.869Z,53.48
2022-08-05T00:14:29.238Z,53.50
2022-08-05T00:17:01.640Z,53.50
2022-08-05T00:19:33.432Z,53.56
2022-08-05T00:22:11.894Z,53.41
2022-08-05T00:24:42.535Z,53.51
2022-08-05T00:27:16.825Z,53.44
2022-08-05T00:29:45.102Z,53.40
2022-08-05T00:32:15.139Z,53.46
2022-08-05T00:35:04.538Z,53.39
2022-08-05T00:37:50.283Z,53.49
2022-08-05T00:40:27.550Z,53.48
2022-08-05T00:42:59.112Z,53.44
2022-08-05T00:45:38.951Z,53.51
2022-08-05T00:48:18.501Z,53.59
2022-08-05T00:50:56.083Z,53.43
2022-08-05T00:54:00.440Z,53.41
2022-08-05T00:56:12.075Z,53.40
2022-08-05T00:58:40.462Z,53.48
2022-08-05T01:01:13.433Z,53.50
2022-08-05T01:03:42.400Z,53.50
2022-08-05T01:06:15.279Z,53.52
2022-08-05T01:08:44.796Z,53.47
2022-08-05T01:11:33.488Z,53.57
2022-08-05T01:14:31.890Z,53.56
2022-08-05T01:17:11.022Z,53.50
2022-08-05T01:20:09.795Z,53.55
2022-08-05T01:22:51.507Z,53.60
2022-08-05T01:25:39.869Z,53.69
2022-08-05T01:28:28.126Z,53.72
2022-08-05T01:31:12.552Z,53.70
2022-08-05T01:34:02.485Z,53.83
2022-08-05T01:36:36.238Z,53.91
2022-08-05T01:39:12.249Z,53.90
2022-08-05T01:41:44.523Z,53.87
2022-08-05T01:44:14.203Z,53.97
2022-08-05T01:46:46.440Z,53.93
2022-08-05T01:49:24.399Z,53.94
2022-08-05T01:52:02.274Z,53.98
2022-08-05T01:54:53.989Z,53.95
2022-08-05T01:58:12.555Z,54.05
2022-08-05T02:00:18.856Z,54.11
2022-08-05T02:02:57.749Z,54.17
2022-08-05T02:05:30.250Z,54.20
2022-08-05T02:08:02.503Z,54.24
2022-08-05T02:10:36.660Z,54.28
2022-08-05T02:13:16.259Z,54.39
2022-08-05T02:15:54.125Z,54.46
2022-08-05T02:18:34.925Z,54.48
2022-08-05T02:21:16.216Z,54.58
2022-08-05T02:23:48.480Z,54.69
2022-08-05T02:26:53.832Z,54.73
2022-08-05T02:29:58.247Z,54.78
2022-08-05T02:32:19.927Z,55.00
2022-08-05T02:34:54.834Z,55.16
2022-08-05T02:37:24.921Z,55.25
2022-08-05T02:39:54.623Z,55.47
2022-08-05T02:42:25.808Z,55.58
2022-08-05T02:44:57.181Z,56.02
2022-08-05T02:48:06.426Z,56.18
2022-08-05T02:50:18.130Z,56.15
2022-08-05T02:52:46.946Z,56.72
2022-08-05T02:55:17.592Z,56.88
2022-08-05T02:58:09.337Z,56.82
2022-08-05T03:00:41.175Z,57.35
2022-08-05T03:03:20.112Z,57.70
2022-08-05T03:06:55.098Z,57.79
2022-08-05T03:08:42.660Z,58.08
2022-08-05T03:11:54.521Z,58.10
2022-08-05T03:14:07.900Z,58.01
2022-08-05T03:16:35.988Z,58.45
2022-08-05T03:19:16.932Z,58.57
2022-08-05T03:21:48.751Z,58.75
2022-08-05T03:24:26.881Z,58.78
2022-08-05T03:27:00.914Z,58.78
2022-08-05T03:29:44.785Z,59.06
2022-08-05T03:32:19.641Z,59.42
2022-08-05T03:34:50.354Z,59.73
2022-08-05T03:37:21.339Z,59.82
2022-08-05T03:40:01.143Z,59.81
2022-08-05T03:42:32.298Z,59.88
2022-08-05T03:45:22.177Z,59.86
2022-08-05T03:47:51.835Z,60.12
2022-08-05T03:50:29.017Z,60.32
2022-08-05T03:55:52.348Z,60.33
2022-08-05T03:56:35.057Z,59.97
2022-08-05T03:59:10.813Z,60.59
2022-08-05T04:01:42.618Z,60.64
2022-08-05T04:04:21.094Z,60.63
2022-08-05T04:06:51.765Z,60.46
2022-08-05T04:09:26.573Z,60.57
2022-08-05T04:11:56.948Z,60.29
2022-08-05T04:14:30.601Z,60.41
2022-08-05T04:17:00.765Z,60.51
2022-08-05T04:19:30.597Z,60.00
2022-08-05T04:22:08.788Z,59.91
2022-08-05T04:24:44.134Z,59.88
2022-08-05T04:27:13.784Z,59.82
2022-08-05T04:29:43.284Z,59.57
2022-08-05T04:32:11.260Z,59.53
2022-08-05T04:34:43.035Z,59.48
2022-08-05T04:37:11.486Z,59.33
2022-08-05T04:39:40.669Z,59.37
2022-08-05T04:42:09.351Z,59.28
2022-08-05T04:44:37.245Z,58.97
2022-08-05T04:47:08.931Z,58.82
2022-08-05T04:50:03.098Z,58.66
2022-08-05T04:52:28.908Z,58.41
2022-08-05T04:54:56.998Z,58.34
2022-08-05T04:57:28.497Z,58.29
2022-08-05T04:59:58.671Z,58.26
2022-08-05T05:02:41.081Z,58.22
2022-08-05T05:05:16.500Z,58.11
2022-08-05T05:07:56.406Z,58.13
2022-08-05T05:10:33.371Z,58.14
2022-08-05T05:13:04.147Z,58.00
2022-08-05T05:16:00.479Z,57.92
2022-08-05T05:18:28.329Z,57.35
2022-08-05T05:20:56.683Z,56.53
2022-08-05T05:23:26.373Z,56.21
2022-08-05T05:25:54.051Z,55.90
2022-08-05T05:28:22.073Z,56.04
2022-08-05T05:30:52.668Z,56.04
2022-08-05T05:33:23.371Z,55.75
2022-08-05T05:35:51.907Z,55.43
2022-08-05T05:38:22.797Z,55.48
2022-08-05T05:40:57.071Z,55.04
2022-08-05T05:43:57.084Z,54.96
2022-08-05T05:46:17.221Z,54.82
2022-08-05T05:48:48.498Z,54.50
2022-08-05T05:51:24.207Z,54.44
2022-08-05T05:53:58.890Z,54.21
2022-08-05T05:56:32.585Z,54.01
2022-08-05T05:59:05.484Z,54.12
2022-08-05T06:01:40.036Z,53.84
2022-08-05T06:04:12.188Z,53.85
2022-08-05T06:06:42.910Z,53.79
2022-08-05T06:09:17.513Z,53.68
2022-08-05T06:12:01.146Z,53.63
2022-08-05T06:14:31.635Z,53.65
2022-08-05T06:17:02.024Z,53.46
2022-08-05T06:19:57.029Z,53.46
2022-08-05T06:22:33.310Z,52.99
2022-08-05T06:25:59.695Z,53.07
2022-08-05T06:28:10.651Z,52.83
2022-08-05T06:30:39.312Z,52.84
2022-08-05T06:33:09.884Z,52.86
2022-08-05T06:36:07.227Z,52.62
2022-08-05T06:38:36.444Z,52.29
2022-08-05T06:41:07.822Z,52.21
2022-08-05T06:43:58.967Z,52.47
2022-08-05T06:46:30.437Z,52.36
2022-08-05T06:49:00.983Z,52.15
2022-08-05T06:51:30.885Z,52.23
2022-08-05T06:54:00.517Z,51.75
2022-08-05T06:56:34.237Z,51.82
2022-08-05T06:59:09.554Z,51.77
2022-08-05T07:01:40.699Z,51.96
2022-08-05T07:04:10.756Z,51.56
2022-08-05T07:06:42.243Z,50.77
2022-08-05T07:09:10.054Z,48.99
2022-08-05T07:11:39.824Z,47.52
2022-08-05T07:14:30.079Z,46.74
2022-08-05T07:17:59.792Z,46.14
2022-08-05T07:20:31.410Z,45.49
2022-08-05T07:22:41.938Z,45.22
2022-08-05T07:25:54.489Z,44.37
2022-08-05T07:28:05.797Z,43.42
2022-08-05T07:30:39.550Z,42.52
2022-08-05T07:33:16.388Z,42.48
2022-08-05T07:36:04.783Z,42.23
2022-08-05T07:38:43.280Z,41.51
2022-08-05T07:42:14.223Z,41.16
2022-08-05T07:44:14.061Z,41.05
2022-08-05T07:46:49.413Z,40.68
2022-08-05T07:49:19.567Z,39.62
2022-08-05T07:51:53.120Z,38.19
2022-08-05T07:54:30.773Z,37.20
2022-08-05T07:57:17.748Z,36.62
2022-08-05T07:59:51.992Z,37.57
2022-08-05T08:02:26.757Z,38.05
2022-08-05T08:04:59.582Z,38.26
2022-08-05T08:07:28.944Z,38.36
2022-08-05T08:10:07.625Z,39.18
2022-08-05T08:12:49.236Z,39.11
2022-08-05T08:15:17.949Z,39.48
2022-08-05T08:18:13.682Z,39.98
2022-08-05T08:21:02.343Z,40.16
2022-08-05T08:24:01.969Z,40.60
2022-08-05T08:26:26.879Z,40.26
2022-08-05T08:29:21.934Z,40.47
2022-08-05T08:31:49.842Z,40.92
2022-08-05T08:34:30.236Z,40.84
2022-08-05T08:37:03.258Z,40.86
2022-08-05T08:39:37.204Z,41.10
2022-08-05T08:42:32.545Z,40.89
2022-08-05T08:45:23.974Z,40.94
2022-08-05T08:48:10.743Z,41.01
2022-08-05T08:51:03.251Z,41.24
2022-08-05T08:53:31.132Z,41.29
2022-08-05T08:56:05.601Z,41.54
2022-08-05T08:58:37.644Z,41.89
2022-08-05T09:01:16.241Z,41.61
2022-08-05T09:03:48.347Z,41.81
2022-08-05T09:06:28.216Z,41.54
2022-08-05T09:09:00.659Z,41.69
2022-08-05T09:11:51.473Z,41.66
2022-08-05T09:14:57.031Z,41.90
2022-08-05T09:17:41.170Z,42.00
2022-08-05T09:20:02.760Z,41.81
2022-08-05T09:23:09.016Z,41.77
2022-08-05T09:26:01.308Z,41.57
2022-08-05T09:28:34.530Z,41.49
2022-08-05T09:31:44.174Z,40.98
2022-08-05T09:33:59.163Z,41.38
2022-08-05T09:36:54.916Z,40.88
2022-08-05T09:39:41.148Z,40.97
2022-08-05T09:42:20.247Z,40.91
2022-08-05T09:44:56.401Z,40.47
2022-08-05T09:47:36.439Z,40.15
2022-08-05T09:50:38.081Z,40.15
2022-08-05T09:53:07.195Z,39.91
2022-08-05T09:55:58.237Z,39.27
2022-08-05T09:58:26.484Z,39.33
2022-08-05T10:01:13.374Z,39.43
2022-08-05T10:04:02.190Z,39.62
2022-08-05T10:06:32.237Z,39.24
2022-08-05T10:09:27.523Z,38.84
2022-08-05T10:12:30.238Z,38.67
2022-08-05T10:15:21.659Z,38.89
2022-08-05T10:18:08.802Z,38.82
2022-08-05T10:20:50.534Z,38.77
2022-08-05T10:23:55.277Z,38.26
2022-08-05T10:26:14.533Z,38.09
2022-08-05T10:28:45.087Z,38.50
2022-08-05T10:32:54.070Z,38.43
2022-08-05T10:34:07.109Z,37.64
2022-08-05T10:36:41.507Z,38.04
2022-08-05T10:39:24.252Z,38.20
2022-08-05T10:42:01.235Z,38.30
2022-08-05T10:44:31.545Z,38.18
2022-08-05T10:46:59.298Z,38.12
2022-08-05T10:49:33.316Z,37.83
2022-08-05T10:52:05.551Z,37.02
2022-08-05T10:55:03.040Z,36.76
2022-08-05T10:57:34.014Z,37.03
2022-08-05T11:00:18.509Z,36.16
2022-08-05T11:03:23.181Z,36.51
2022-08-05T11:06:04.275Z,36.14
2022-08-05T11:08:37.458Z,36.44
2022-08-05T11:11:44.657Z,35.92
2022-08-05T11:14:57.571Z,35.72
2022-08-05T11:18:00.417Z,36.20
2022-08-05T11:20:41.689Z,35.92
2022-08-05T11:24:04.819Z,36.05
2022-08-05T11:26:32.335Z,35.69
2022-08-05T11:29:13.746Z,35.39
2022-08-05T11:31:58.023Z,35.41
2022-08-05T11:34:47.413Z,35.72
2022-08-05T11:38:26.842Z,35.87
2022-08-05T11:41:35.123Z,35.76
2022-08-05T11:44:07.307Z,35.64
2022-08-05T11:46:58.697Z,35.78
2022-08-05T11:49:36.248Z,35.03
2022-08-05T11:52:08.424Z,34.36
2022-08-05T11:54:41.309Z,34.95
2022-08-05T11:57:24.244Z,34.73
2022-08-05T11:59:54.616Z,35.19
2022-08-05T12:02:33.451Z,35.21
2022-08-05T12:05:08.210Z,35.03
2022-08-05T12:08:04.394Z,34.65
2022-08-05T12:10:43.805Z,34.17
2022-08-05T12:13:17.218Z,34.48
2022-08-05T12:15:56.300Z,34.48
2022-08-05T12:18:38.890Z,33.60
2022-08-05T12:21:12.303Z,33.06
2022-08-05T12:23:43.232Z,33.28
2022-08-05T12:26:11.239Z,33.63
2022-08-05T12:28:39.203Z,33.55
2022-08-05T12:31:07.262Z,33.52
2022-08-05T12:33:36.376Z,34.10
2022-08-05T12:36:08.639Z,34.05
2022-08-05T12:38:39.891Z,34.05
2022-08-05T12:41:13.905Z,33.95
2022-08-05T12:43:57.350Z,33.52
2022-08-05T12:46:29.285Z,34.11
2022-08-05T12:49:00.512Z,34.02
2022-08-05T12:52:10.316Z,33.79
2022-08-05T12:54:23.229Z,33.93
2022-08-05T12:56:57.437Z,33.93
2022-08-05T13:01:58.500Z,33.51
2022-08-05T13:02:40.146Z,33.58
2022-08-05T13:05:12.664Z,33.37
2022-08-05T13:07:59.925Z,34.13
2022-08-05T13:10:33.238Z,33.99
2022-08-05T13:13:01.017Z,34.20
2022-08-05T13:15:35.906Z,34.05
2022-08-05T13:18:19.440Z,34.00
2022-08-05T13:20:49.807Z,33.90
2022-08-05T13:23:22.642Z,34.27
2022-08-05T13:25:58.973Z,34.05
2022-08-05T13:28:28.566Z,34.15
2022-08-05T13:30:57.226Z,33.53
2022-08-05T13:34:22.239Z,33.77
2022-08-05T13:36:14.539Z,33.75
2022-08-05T13:38:43.243Z,33.67
2022-08-05T13:41:11.755Z,33.95
2022-08-05T13:43:45.924Z,33.35
2022-08-05T13:46:43.893Z,33.17
2022-08-05T13:49:12.874Z,33.48
2022-08-05T13:51:46.254Z,33.42
2022-08-05T13:54:16.659Z,33.18
2022-08-05T13:56:51.428Z,33.19
2022-08-05T13:59:24.603Z,33.36
2022-08-05T14:01:58.361Z,33.35
2022-08-05T14:04:49.738Z,33.55
2022-08-05T14:07:56.223Z,32.88
2022-08-05T14:10:18.678Z,33.03
2022-08-05T14:12:48.862Z,32.88
2022-08-05T14:16:05.218Z,32.46
2022-08-05T14:18:06.002Z,32.66
2022-08-05T14:20:43.334Z,33.01
2022-08-05T14:23:24.763Z,32.28
2022-08-05T14:25:57.937Z,32.98
2022-08-05T14:28:29.726Z,32.79
2022-08-05T14:30:59.656Z,32.48
2022-08-05T14:33:57.043Z,32.56
2022-08-05T14:36:21.444Z,32.42
2022-08-05T14:38:51.227Z,32.58
2022-08-05T14:41:19.400Z,32.37
2022-08-05T14:44:02.361Z,32.57
2022-08-05T14:46:35.527Z,31.98
2022-08-05T14:49:07.277Z,31.81
2022-08-05T14:51:42.403Z,32.08
2022-08-05T14:54:28.122Z,32.55
2022-08-05T14:56:59.188Z,32.22
2022-08-05T14:59:29.717Z,32.34
2022-08-05T15:02:15.050Z,32.73
2022-08-05T15:04:47.756Z,33.08
2022-08-05T15:08:05.698Z,33.26
2022-08-05T15:10:09.525Z,32.88
2022-08-05T15:12:59.717Z,32.76
2022-08-05T15:15:55.552Z,32.87
2022-08-05T15:18:17.233Z,32.77
2022-08-05T15:20:45.997Z,32.76
2022-08-05T15:23:14.375Z,32.75
2022-08-05T15:25:53.861Z,32.16
2022-08-05T15:28:27.272Z,32.18
2022-08-05T15:30:56.638Z,32.33
2022-08-05T15:34:18.892Z,32.15
2022-08-05T15:36:17.267Z,32.37
2022-08-05T15:40:41.395Z,32.35
2022-08-05T15:41:57.591Z,32.47
2022-08-05T15:44:30.292Z,32.22
2022-08-05T15:47:01.113Z,32.29
2022-08-05T15:49:48.229Z,32.14
2022-08-05T15:52:52.070Z,32.36
2022-08-05T15:55:16.268Z,32.62
2022-08-05T15:57:45.131Z,32.73
2022-08-05T16:00:16.650Z,32.93
2022-08-05T16:02:44.873Z,33.14
2022-08-05T16:05:13.281Z,33.49
2022-08-05T16:07:46.276Z,33.84
2022-08-05T16:10:14.635Z,34.02
2022-08-05T16:12:42.663Z,34.44
2022-08-05T16:15:10.653Z,35.37
2022-08-05T16:17:57.418Z,36.17
2022-08-05T16:20:26.200Z,37.13
2022-08-05T16:22:56.068Z,37.64
2022-08-05T16:25:32.352Z,37.78
2022-08-05T16:28:06.568Z,38.00
2022-08-05T16:30:37.965Z,38.44
2022-08-05T16:33:05.687Z,38.70
2022-08-05T16:35:41.991Z,38.94
2022-08-05T16:38:23.731Z,39.20
2022-08-05T16:40:59.630Z,39.36
2022-08-05T16:43:32.099Z,39.85
2022-08-05T16:46:04.279Z,40.39
2022-08-05T16:48:38.796Z,41.25
2022-08-05T16:51:09.009Z,41.66
2022-08-05T16:54:03.948Z,41.58
2022-08-05T16:56:30.349Z,41.67
2022-08-05T16:58:58.877Z,41.67
2022-08-05T17:01:52.564Z,41.43
2022-08-05T17:04:17.034Z,41.08
2022-08-05T17:06:53.500Z,40.96
2022-08-05T17:09:23.154Z,41.15
2022-08-05T17:11:56.119Z,41.50
2022-08-05T17:14:36.820Z,41.84
2022-08-05T17:17:14.162Z,42.09
2022-08-05T17:19:46.058Z,42.56
2022-08-05T17:22:24.754Z,42.90
2022-08-05T17:24:58.683Z,43.04
2022-08-05T17:27:33.541Z,43.76
2022-08-05T17:30:12.179Z,44.10
2022-08-05T17:32:47.196Z,44.41
2022-08-05T17:35:15.876Z,44.76
2022-08-05T17:37:49.259Z,45.27
2022-08-05T17:40:22.699Z,45.73
2022-08-05T17:42:52.014Z,45.87
2022-08-05T17:45:25.033Z,46.12
2022-08-05T17:47:58.189Z,46.60
2022-08-05T17:50:30.539Z,46.86
2022-08-05T17:53:01.425Z,47.19
2022-08-05T17:55:37.638Z,47.58
2022-08-05T17:58:09.683Z,48.02
2022-08-05T18:00:44.687Z,48.62
2022-08-05T18:06:12.075Z,49.38
2022-08-05T18:08:45.734Z,49.80
2022-08-05T18:11:24.293Z,49.84
2022-08-05T18:14:03.679Z,49.93
2022-08-05T18:16:33.600Z,50.38
2022-08-05T18:19:03.051Z,51.11
2022-08-05T18:22:09.353Z,51.42
2022-08-05T18:24:19.103Z,51.34
2022-08-05T18:26:48.933Z,52.12
2022-08-05T18:29:16.876Z,52.13
2022-08-05T18:31:45.045Z,52.66
2022-08-05T18:34:12.976Z,52.58
2022-08-05T18:36:43.692Z,52.77
2022-08-05T18:39:22.423Z,52.95
2022-08-05T18:42:06.040Z,53.21
2022-08-05T18:44:55.516Z,53.30
2022-08-05T18:47:26.634Z,53.32
2022-08-05T18:50:15.509Z,53.62
2022-08-05T18:52:50.794Z,54.14
2022-08-05T18:55:21.737Z,54.31
2022-08-05T18:57:53.350Z,54.43
2022-08-05T19:00:27.182Z,54.96
2022-08-05T19:03:04.251Z,54.74
2022-08-05T19:06:12.600Z,54.87
2022-08-05T19:08:30.809Z,55.24
2022-08-05T19:11:02.807Z,55.28
2022-08-05T19:13:35.682Z,55.49
2022-08-05T19:16:22.202Z,55.48
2022-08-05T19:18:56.792Z,55.70
2022-08-05T19:21:27.395Z,55.83
2022-08-05T19:24:05.399Z,55.98
2022-08-05T19:26:54.638Z,56.35
2022-08-05T19:29:36.401Z,56.17
2022-08-05T19:32:11.179Z,56.26
2022-08-05T19:34:39.896Z,56.52
2022-08-05T19:37:10.095Z,56.52
2022-08-05T19:39:45.837Z,56.63
2022-08-05T19:42:36.132Z,56.75
2022-08-05T19:45:06.462Z,56.85
2022-08-05T19:47:37.170Z,56.91
2022-08-05T19:50:07.869Z,57.07
2022-08-05T19:52:40.023Z,57.31
2022-08-05T19:56:15.367Z,57.55
2022-08-05T19:58:04.067Z,57.45
2022-08-05T20:00:44.564Z,57.60
2022-08-05T20:03:12.374Z,57.74
2022-08-05T20:05:50.333Z,57.93
2022-08-05T20:08:20.034Z,58.03
2022-08-05T20:10:49.688Z,58.15
2022-08-05T20:13:30.087Z,58.40
2022-08-05T20:16:06.954Z,58.42
2022-08-05T20:18:35.995Z,58.67
2022-08-05T20:21:06.612Z,58.90
2022-08-05T20:23:39.928Z,59.11
2022-08-05T20:26:21.797Z,59.47
2022-08-05T20:28:55.783Z,59.55
2022-08-05T20:31:36.924Z,59.61
2022-08-05T20:34:12.527Z,59.95
2022-08-05T20:36:43.188Z,60.13
2022-08-05T20:39:16.798Z,60.56
2022-08-05T20:41:47.926Z,60.49
2022-08-05T20:44:30.697Z,60.89
2022-08-05T20:47:01.619Z,60.72
2022-08-05T20:49:37.913Z,61.33
2022-08-05T20:52:10.811Z,61.41
2022-08-05T20:54:43.127Z,63.69
2022-08-05T20:57:24.406Z,61.03
2022-08-05T21:00:40.764Z,54.80
2022-08-05T21:03:06.374Z,53.25
2022-08-05T21:05:47.690Z,53.71
2022-08-05T21:08:31.715Z,54.36
2022-08-05T21:11:09.106Z,55.22
2022-08-05T21:13:56.274Z,56.00
2022-08-05T21:16:29.462Z,56.83
2022-08-05T21:19:01.146Z,57.33
2022-08-05T21:21:39.554Z,58.30
2022-08-05T21:24:15.346Z,58.82
2022-08-05T21:26:50.532Z,60.40
2022-08-05T21:29:26.442Z,61.23
2022-08-05T21:32:03.094Z,62.89
2022-08-05T21:34:31.723Z,60.82
2022-08-05T21:37:00.793Z,54.32
2022-08-05T21:39:30.212Z,54.45
2022-08-05T21:42:02.602Z,55.24
2022-08-05T21:44:31.944Z,56.29
2022-08-05T21:47:00.335Z,57.15
2022-08-05T21:49:48.051Z,58.36
2022-08-05T21:52:27.252Z,58.78
2022-08-05T21:54:57.045Z,59.70
2022-08-05T21:57:32.702Z,60.89
2022-08-05T22:00:06.251Z,63.29
2022-08-05T22:02:34.712Z,61.76
2022-08-05T22:05:04.611Z,54.76
2022-08-05T22:07:39.773Z,54.37
2022-08-05T22:10:27.203Z,55.24
2022-08-05T22:12:59.165Z,56.31
2022-08-05T22:16:01.623Z,57.34
2022-08-05T22:18:25.850Z,58.41
2022-08-05T22:20:54.466Z,59.83
2022-08-05T22:24:01.900Z,60.69
2022-08-05T22:26:50.760Z,61.28
2022-08-05T22:29:26.161Z,64.20
2022-08-05T22:31:55.201Z,58.63
2022-08-05T22:34:32.760Z,56.36
2022-08-05T22:37:03.825Z,57.22
2022-08-05T22:39:34.707Z,58.52
2022-08-05T22:42:09.739Z,59.51
2022-08-05T22:44:48.450Z,60.43
2022-08-05T22:47:29.933Z,61.25
2022-08-05T22:50:23.134Z,62.77
2022-08-05T22:52:51.536Z,60.47
2022-08-05T22:55:23.087Z,55.57
2022-08-05T22:57:52.653Z,55.01
2022-08-05T23:00:22.580Z,55.97
2022-08-05T23:02:53.434Z,57.06
2022-08-05T23:05:22.932Z,58.55
2022-08-05T23:07:51.812Z,60.11
2022-08-05T23:10:23.601Z,61.20
2022-08-05T23:12:55.232Z,62.40
2022-08-05T23:15:28.953Z,61.88
2022-08-05T23:18:01.069Z,55.81
2022-08-05T23:20:33.013Z,54.59
2022-08-05T23:23:03.452Z,55.42
2022-08-05T23:25:53.687Z,56.93
2022-08-05T23:28:19.280Z,58.90
2022-08-05T23:30:53.184Z,59.73
2022-08-05T23:33:26.131Z,60.22
2022-08-05T23:36:13.737Z,61.09
2022-08-05T23:38:43.631Z,63.27
2022-08-05T23:41:11.799Z,61.89
2022-08-05T23:44:06.403Z,55.72
2022-08-05T23:46:29.687Z,54.79
2022-08-05T23:49:00.305Z,56.40
2022-08-05T23:51:53.467Z,57.82
2022-08-05T23:54:25.982Z,58.85
2022-08-05T23:57:03.286Z,60.06
